Time;durP1;ratioP1;P1;durP2;ratioP2;P2;SDS_P1;SDS_P2;PMS_P1;PMS_P2;Temp;Humidity;BMP_temperature;BMP_pressure;BME280_temperature;BME280_humidity;BME280_pressure;Samples;Min_cycle;Max_cycle;Signal;HPM_P1;HPM_P2
2022/09/12 00:01:41;;;;;;;4.90;4.17;;;;;;;18.11;85.62;94444.88;4989731;28;20267;-78
2022/09/12 00:04:10;;;;;;;6.00;3.90;;;;;;;18.23;85.24;94473.63;4990011;28;20208;-78
2022/09/12 00:06:37;;;;;;;5.80;3.70;;;;;;;18.26;85.66;94481.00;4972837;28;20193;-77
2022/09/12 00:09:07;;;;;;;4.07;3.73;;;;;;;18.21;85.99;94478.97;4990029;28;20193;-78
2022/09/12 00:11:37;;;;;;;6.47;3.67;;;;;;;18.25;85.55;94487.97;4989967;28;20200;-78
2022/09/12 00:14:05;;;;;;;4.63;3.50;;;;;;;18.24;85.51;94490.75;4990505;28;20223;-79
2022/09/12 00:16:35;;;;;;;3.90;3.60;;;;;;;18.21;85.96;94499.69;4994200;28;20712;-79
2022/09/12 00:19:03;;;;;;;4.83;3.80;;;;;;;18.21;85.61;94502.25;4994441;28;20189;-78
2022/09/12 00:21:32;;;;;;;3.67;3.40;;;;;;;18.26;84.75;94493.94;4993938;28;20303;-79
2022/09/12 00:23:59;;;;;;;4.93;3.40;;;;;;;18.19;85.57;94491.31;4993419;28;20833;-77
2022/09/12 00:26:25;;;;;;;3.90;3.60;;;;;;;18.17;85.23;94492.47;4994636;28;20211;-79
2022/09/12 00:28:54;;;;;;;3.33;3.13;;;;;;;18.12;85.49;94489.66;4994110;28;20185;-79
2022/09/12 00:31:23;;;;;;;4.17;3.80;;;;;;;18.08;86.12;94485.84;4994795;28;20204;-79
2022/09/12 00:33:50;;;;;;;4.07;3.77;;;;;;;17.89;85.94;94464.03;4994164;28;20664;-78
2022/09/12 00:36:20;;;;;;;6.00;3.60;;;;;;;18.18;83.94;94494.91;4994157;28;20232;-78
2022/09/12 00:38:49;;;;;;;5.03;3.60;;;;;;;18.05;85.03;94494.81;4993479;28;20208;-78
2022/09/12 00:41:23;;;;;;;4.10;3.03;;;;;;;17.97;84.85;94487.19;4993325;28;20193;-77
2022/09/12 00:43:54;;;;;;;5.37;4.07;;;;;;;17.87;85.58;94482.31;4994297;28;20180;-76
2022/09/12 00:46:33;;;;;;;3.23;3.03;;;;;;;17.89;85.72;94487.31;4994524;28;20647;-77
2022/09/12 00:49:04;;;;;;;3.53;3.30;;;;;;;17.90;84.82;94489.72;4993180;28;20211;-76
2022/09/12 00:51:34;;;;;;;3.80;3.50;;;;;;;17.73;84.85;94467.66;4993755;28;20570;-78
2022/09/12 00:54:07;;;;;;;3.80;3.40;;;;;;;17.84;84.91;94487.09;4993811;28;20193;-76
2022/09/12 00:56:38;;;;;;;6.93;3.23;;;;;;;17.75;85.05;94470.91;4993677;28;20704;-77
2022/09/12 00:59:12;;;;;;;3.60;3.07;;;;;;;17.85;nan;94478.34;4993241;28;20288;-77
2022/09/12 01:01:42;;;;;;;4.27;3.50;;;;;;;17.76;85.04;94475.09;4994639;28;20703;-77
2022/09/12 01:04:10;;;;;;;4.43;3.20;;;;;;;17.73;84.31;94475.41;4994715;28;20201;-78
2022/09/12 01:06:40;;;;;;;3.40;3.10;;;;;;;17.70;84.39;94479.19;4998839;28;20610;-76
2022/09/12 01:09:08;;;;;;;3.20;2.90;;;;;;;17.67;84.47;94471.78;4997632;28;20199;-77
2022/09/12 01:11:37;;;;;;;3.10;2.80;;;;;;;17.65;84.01;94476.34;5009900;28;20196;-79
2022/09/12 01:14:04;;;;;;;2.80;2.57;;;;;;;17.72;83.26;94466.06;5003660;28;20194;-79
2022/09/12 01:16:36;;;;;;;3.30;3.03;;;;;;;17.64;83.80;94469.56;4993693;28;20272;-78
2022/09/12 01:19:25;;;;;;;4.90;3.03;;;;;;;17.61;83.24;94480.28;4994324;28;20275;-79
2022/09/12 01:22:11;;;;;;;3.17;2.97;;;;;;;17.62;83.34;94479.31;4993438;28;20189;-77
2022/09/12 01:24:53;;;;;;;3.23;2.97;;;;;;;17.51;83.64;94470.25;4993306;28;20189;-78
2022/09/12 01:27:40;;;;;;;3.50;3.20;;;;;;;17.43;83.74;94465.22;4993411;28;20199;-79
2022/09/12 01:30:44;;;;;;;3.00;2.80;;;;;;;17.40;83.82;94465.59;4992943;28;20195;-78
2022/09/12 01:33:30;;;;;;;2.50;2.40;;;;;;;17.44;83.16;94468.59;4993074;28;20200;-77
2022/09/12 01:36:22;;;;;;;4.03;2.90;;;;;;;17.19;82.35;94427.63;4990276;28;20194;-77
2022/09/12 01:38:59;;;;;;;2.70;2.50;;;;;;;17.41;82.92;94476.75;4991495;28;20192;-77
2022/09/12 01:41:34;;;;;;;4.37;2.63;;;;;;;17.41;83.13;94471.56;4992742;28;20707;-78
2022/09/12 01:44:09;;;;;;;3.00;2.80;;;;;;;17.32;83.44;94470.09;4992931;28;20200;-77
2022/09/12 01:46:45;;;;;;;2.80;2.60;;;;;;;17.29;83.22;94464.28;4993262;28;20181;-80
2022/09/12 01:49:18;;;;;;;5.13;2.60;;;;;;;17.24;83.49;94464.06;4976465;28;20201;-77
2022/09/12 01:51:53;;;;;;;2.80;2.60;;;;;;;17.23;83.47;94464.25;4993218;28;20256;-78
2022/09/12 01:54:25;;;;;;;3.00;2.70;;;;;;;17.21;84.16;94450.69;4992380;28;20227;-77
2022/09/12 01:56:57;;;;;;;2.60;2.40;;;;;;;17.11;83.66;94435.50;4992930;28;20220;-78
2022/09/12 01:59:29;;;;;;;2.33;2.17;;;;;;;17.14;83.37;94458.41;4992699;28;20628;-76
2022/09/12 02:02:05;;;;;;;2.70;2.27;;;;;;;17.11;82.61;94470.88;4992864;28;20185;-77
2022/09/12 02:04:36;;;;;;;2.97;2.77;;;;;;;17.16;81.71;94463.38;4992512;28;21178;-77
2022/09/12 02:07:11;;;;;;;2.53;2.40;;;;;;;17.15;82.05;94454.81;4992595;28;20197;-79
2022/09/12 02:09:43;;;;;;;2.97;2.57;;;;;;;17.10;82.92;94461.50;4992608;28;20188;-78
2022/09/12 02:12:13;;;;;;;2.60;2.40;;;;;;;17.04;83.18;94457.88;4992510;28;20209;-77
2022/09/12 02:14:46;;;;;;;2.63;2.43;;;;;;;17.02;83.04;94462.44;4991925;28;20193;-78
2022/09/12 02:17:20;;;;;;;4.13;1.93;;;;;;;17.03;82.40;94454.50;4992459;28;20233;-79
2022/09/12 02:19:52;;;;;;;2.50;2.30;;;;;;;16.99;82.72;94460.22;4992244;28;20653;-80
2022/09/12 02:22:23;;;;;;;2.50;2.40;;;;;;;16.94;83.63;94467.72;4992221;28;20185;-79
2022/09/12 02:24:55;;;;;;;2.53;2.33;;;;;;;17.09;82.20;94467.66;4991771;28;20197;-78
2022/09/12 02:27:24;;;;;;;2.07;1.97;;;;;;;17.04;82.30;94463.84;4991995;28;20563;-78
2022/09/12 02:29:52;;;;;;;3.40;2.07;;;;;;;16.99;82.23;94455.03;4991788;28;20193;-78
2022/09/12 02:32:29;;;;;;;2.40;2.20;;;;;;;16.94;82.41;94459.97;4992021;28;20288;-77
2022/09/12 02:35:05;;;;;;;3.37;2.27;;;;;;;16.89;82.67;94459.72;4991916;28;20660;-79
2022/09/12 02:37:55;;;;;;;2.43;2.23;;;;;;;16.59;82.02;94421.00;4991640;28;20556;-79
2022/09/12 02:40:23;;;;;;;2.60;2.40;;;;;;;16.82;82.55;94464.78;4992439;28;20220;-78
2022/09/12 02:42:50;;;;;;;2.60;2.40;;;;;;;16.79;82.46;94463.38;4992174;28;20196;-77
2022/09/12 02:45:18;;;;;;;5.80;2.87;;;;;;;16.71;82.58;94452.31;4991804;28;20202;-78
2022/09/12 02:47:50;;;;;;;2.70;2.03;;;;;;;16.56;82.70;94434.28;4992148;28;20185;-78
2022/09/12 02:50:18;;;;;;;2.40;2.20;;;;;;;16.73;82.67;94461.50;4991295;28;20615;-78
2022/09/12 02:52:45;;;;;;;2.47;2.13;;;;;;;16.71;82.62;94463.47;4991479;28;20204;-78
2022/09/12 02:55:14;;;;;;;2.77;1.80;;;;;;;16.44;82.68;94428.75;4991564;28;20196;-79
2022/09/12 02:57:41;;;;;;;2.50;1.97;;;;;;;16.70;82.44;94469.59;4991491;28;20270;-79
2022/09/12 03:00:09;;;;;;;2.63;2.10;;;;;;;16.61;83.04;94451.81;4991474;28;20208;-78
2022/09/12 03:02:54;;;;;;;3.13;2.40;;;;;;;16.67;82.18;94464.00;4993064;28;20216;-78
2022/09/12 03:05:28;;;;;;;5.10;2.13;;;;;;;16.64;82.81;94466.94;4991936;28;20189;-78
2022/09/12 03:08:33;;;;;;;2.27;2.17;;;;;;;16.55;82.36;94464.44;4990942;28;20219;-77
2022/09/12 03:11:18;;;;;;;2.50;2.30;;;;;;;15.88;82.10;94369.09;4991627;28;20657;-77
2022/09/12 03:13:55;;;;;;;2.10;2.00;;;;;;;16.39;82.75;94449.16;4991345;28;20204;-79
2022/09/12 03:16:33;;;;;;;2.23;2.13;;;;;;;16.24;82.70;94436.28;4991169;28;20265;-79
2022/09/12 03:19:10;;;;;;;2.50;2.30;;;;;;;16.54;82.93;94482.72;4991933;28;20231;-79
2022/09/12 03:21:49;;;;;;;4.17;2.13;;;;;;;16.51;83.27;94475.31;4990885;28;20193;-79
2022/09/12 03:24:21;;;;;;;2.40;2.20;;;;;;;16.50;82.98;94479.69;4991140;28;20206;-78
2022/09/12 03:26:56;;;;;;;2.30;2.20;;;;;;;16.47;83.24;94477.44;4990955;28;20274;-79
2022/09/12 03:29:25;;;;;;;6.23;2.10;;;;;;;16.47;83.53;94481.81;4991814;28;20219;-78
2022/09/12 03:31:54;;;;;;;2.50;2.30;;;;;;;16.45;83.53;94476.84;4991477;28;20209;-79
2022/09/12 03:34:24;;;;;;;3.80;2.40;;;;;;;16.45;83.47;94478.59;4975035;28;20235;-80
2022/09/12 03:36:51;;;;;;;3.33;2.27;;;;;;;16.39;83.34;94464.63;4991911;28;20220;-77
2022/09/12 03:39:19;;;;;;;2.17;2.07;;;;;;;16.24;83.59;94445.78;4973695;28;20201;-79
2022/09/12 03:41:48;;;;;;;2.30;2.20;;;;;;;16.36;83.91;94461.59;4991109;28;20248;-77
2022/09/12 03:44:15;;;;;;;2.40;2.20;;;;;;;16.42;83.82;94466.88;4991902;28;20193;-80
2022/09/12 03:46:42;;;;;;;2.40;2.23;;;;;;;16.42;83.59;94474.63;4991170;28;20193;-78
2022/09/12 03:49:11;;;;;;;2.00;1.90;;;;;;;16.39;83.65;94477.53;4990119;28;20746;-78
2022/09/12 03:51:41;;;;;;;4.70;2.70;;;;;;;16.38;84.01;94475.16;4991109;28;20205;-79
2022/09/12 03:54:10;;;;;;;4.23;2.30;;;;;;;16.11;83.96;94433.50;4991395;28;20296;-78
2022/09/12 03:56:38;;;;;;;2.30;2.20;;;;;;;16.37;83.80;94476.94;4973157;28;20201;-78
2022/09/12 03:59:06;;;;;;;3.50;2.20;;;;;;;16.36;83.86;94488.22;4990533;28;20193;-79
2022/09/12 04:01:34;;;;;;;2.97;2.20;;;;;;;16.35;84.22;94483.25;4990366;28;20247;-78
2022/09/12 04:04:01;;;;;;;2.60;2.40;;;;;;;16.36;83.69;94480.47;4990984;28;20189;-77
2022/09/12 04:06:28;;;;;;;6.03;2.60;;;;;;;16.35;84.08;94484.03;4989544;28;20244;-77
2022/09/12 04:08:57;;;;;;;2.80;2.60;;;;;;;16.24;84.28;94467.22;4990886;28;20642;-80
2022/09/12 04:11:24;;;;;;;2.60;2.40;;;;;;;16.34;84.50;94487.59;4991032;28;20196;-78
2022/09/12 04:13:51;;;;;;;2.80;2.60;;;;;;;16.34;84.69;94487.59;4990335;28;20212;-78
2022/09/12 04:16:19;;;;;;;3.23;2.50;;;;;;;16.28;84.39;94478.81;4990687;28;20233;-77
2022/09/12 04:18:46;;;;;;;3.90;2.90;;;;;;;16.05;84.90;94441.94;4990038;28;20221;-78
2022/09/12 04:21:17;;;;;;;4.70;2.93;;;;;;;16.31;84.51;94477.63;4990542;28;20185;-77
2022/09/12 04:23:44;;;;;;;3.60;2.80;;;;;;;16.33;85.16;94482.63;4989811;28;20229;-77
2022/09/12 04:26:13;;;;;;;4.83;2.80;;;;;;;16.50;84.47;94494.38;4990194;28;20228;-77
2022/09/12 04:28:41;;;;;;;3.50;3.20;;;;;;;16.51;84.52;94507.09;4989583;28;20670;-78
2022/09/12 04:31:12;;;;;;;3.90;3.17;;;;;;;16.50;84.89;94492.59;4990444;28;20248;-79
2022/09/12 04:33:39;;;;;;;3.87;3.57;;;;;;;16.51;84.84;94499.34;4989705;28;20193;-79
2022/09/12 04:36:08;;;;;;;3.77;3.47;;;;;;;16.50;84.38;94495.19;4990100;28;20200;-79
2022/09/12 04:38:36;;;;;;;4.67;3.60;;;;;;;16.68;83.53;94502.53;4990435;28;20215;-78
2022/09/12 04:41:12;;;;;;;5.57;3.37;;;;;;;16.73;83.86;94502.03;4990006;28;20630;-79
2022/09/12 04:43:39;;;;;;;4.00;3.47;;;;;;;16.80;82.70;94503.72;4991474;28;20193;-78
2022/09/12 04:46:07;;;;;;;4.07;3.70;;;;;;;16.89;82.54;94507.00;4989969;28;20189;-78
2022/09/12 04:48:34;;;;;;;4.23;3.80;;;;;;;16.80;82.36;94490.00;4989465;28;20197;-78
2022/09/12 04:51:07;;;;;;;4.30;3.90;;;;;;;16.71;82.19;94475.53;4990245;28;20190;-78
2022/09/12 04:53:35;;;;;;;4.77;3.70;;;;;;;16.71;82.40;94467.81;4990357;28;20217;-77
2022/09/12 04:56:03;;;;;;;4.43;4.10;;;;;;;17.03;82.87;94510.53;4990187;28;20186;-77
2022/09/12 04:58:34;;;;;;;4.70;3.80;;;;;;;17.01;82.25;94505.56;4989642;28;20237;-76
2022/09/12 05:01:06;;;;;;;7.87;3.87;;;;;;;17.09;82.91;94504.63;4991833;28;20565;-76
2022/09/12 05:03:33;;;;;;;4.33;3.93;;;;;;;17.18;82.75;94513.88;4992776;28;20632;-76
2022/09/12 05:06:02;;;;;;;5.53;3.63;;;;;;;17.32;82.17;94514.03;4992996;28;20200;-76
2022/09/12 05:08:29;;;;;;;5.90;3.93;;;;;;;17.41;81.30;94505.97;4993312;28;20201;-79
2022/09/12 05:10:57;;;;;;;6.73;3.37;;;;;;;17.60;80.79;94512.31;4992733;28;20185;-79
2022/09/12 05:13:24;;;;;;;5.53;3.70;;;;;;;17.70;79.10;94512.00;4992336;28;20193;-78
2022/09/12 05:16:00;;;;;;;5.00;3.07;;;;;;;17.86;79.34;94511.75;4992364;28;20229;-77
2022/09/12 05:18:27;;;;;;;3.90;3.30;;;;;;;18.00;78.94;94518.66;4992229;28;20220;-78
2022/09/12 05:20:55;;;;;;;3.77;3.43;;;;;;;17.96;79.12;94472.63;4992960;28;20625;-77
2022/09/12 05:23:23;;;;;;;6.67;4.07;;;;;;;18.32;78.05;94513.91;4992455;28;20189;-77
2022/09/12 05:25:51;;;;;;;4.43;3.33;;;;;;;18.44;76.87;94514.19;4992741;28;20220;-77
2022/09/12 05:28:18;;;;;;;3.30;3.00;;;;;;;18.52;76.54;94516.59;4992229;28;20201;-79
2022/09/12 05:30:45;;;;;;;4.20;3.43;;;;;;;18.61;74.54;94515.47;4992095;28;20666;-78
2022/09/12 05:33:15;;;;;;;3.70;3.40;;;;;;;18.72;74.87;94503.78;4992476;28;20189;-78
2022/09/12 05:35:41;;;;;;;4.57;2.93;;;;;;;18.99;75.99;94509.88;4992011;28;20272;-78
2022/09/12 05:38:08;;;;;;;3.93;3.10;;;;;;;19.16;74.83;94515.50;4991962;28;20233;-78
2022/09/12 05:40:35;;;;;;;4.53;3.77;;;;;;;19.33;75.13;94511.56;4991779;28;20577;-78
2022/09/12 05:43:03;;;;;;;4.33;2.63;;;;;;;19.52;75.28;94508.25;4991791;28;20658;-79
2022/09/12 05:45:30;;;;;;;4.50;3.20;;;;;;;19.70;74.92;94499.09;4992136;28;20189;-80
2022/09/12 05:48:01;;;;;;;3.67;3.37;;;;;;;19.79;71.79;94498.72;4992701;28;20297;-77
2022/09/12 05:50:29;;;;;;;7.83;2.97;;;;;;;19.84;72.29;94459.19;4992004;28;20620;-79
2022/09/12 05:52:57;;;;;;;3.63;2.80;;;;;;;20.29;70.97;94506.88;4992334;28;20189;-78
2022/09/12 05:55:23;;;;;;;5.80;3.03;;;;;;;20.09;70.76;94443.00;4991925;28;20186;-78
2022/09/12 05:57:50;;;;;;;2.75;2.55;;;;;;;20.65;69.50;94497.84;4991747;28;20267;-78
2022/09/12 06:00:20;;;;;;;3.60;3.10;;;;;;;20.89;70.12;94498.94;4991980;28;20193;-79
2022/09/12 06:02:52;;;;;;;3.05;2.60;;;;;;;20.87;66.56;94493.16;4991884;28;20687;-79
2022/09/12 06:05:20;;;;;;;3.45;3.15;;;;;;;20.96;66.22;94493.72;4991773;28;20622;-79
2022/09/12 06:07:48;;;;;;;3.05;2.85;;;;;;;20.99;65.75;94483.72;4991591;28;20193;-77
2022/09/12 06:10:16;;;;;;;4.67;2.97;;;;;;;20.88;66.60;94453.16;4991655;28;20349;-78
2022/09/12 06:12:43;;;;;;;3.67;3.20;;;;;;;21.05;65.25;94492.47;4990844;28;20698;-77
2022/09/12 06:15:10;;;;;;;3.58;3.25;;;;;;;21.01;65.21;94488.69;4991562;28;20201;-77
2022/09/12 06:17:37;;;;;;;4.10;3.03;;;;;;;20.90;65.18;94474.56;4991722;28;20236;-77
2022/09/12 06:20:04;;;;;;;3.55;3.25;;;;;;;20.91;65.29;94486.53;4991576;28;20189;-78
2022/09/12 06:22:31;;;;;;;3.40;3.10;;;;;;;20.82;64.60;94481.78;4991242;28;20185;-76
2022/09/12 06:24:59;;;;;;;5.60;3.08;;;;;;;20.81;66.11;94486.16;4991477;28;20196;-78
2022/09/12 06:27:26;;;;;;;3.80;3.38;;;;;;;20.73;66.01;94502.81;4991094;28;20185;-77
2022/09/12 06:29:53;;;;;;;3.97;3.53;;;;;;;20.85;66.25;94512.56;4991581;28;20197;-78
2022/09/12 06:32:20;;;;;;;3.72;3.30;;;;;;;20.72;65.88;94509.00;4991216;28;20204;-76
2022/09/12 06:34:47;;;;;;;3.83;3.53;;;;;;;20.93;66.71;94507.94;4991577;28;20204;-79
2022/09/12 06:37:14;;;;;;;3.28;3.08;;;;;;;21.04;66.09;94514.28;4991089;28;20280;-77
2022/09/12 06:39:41;;;;;;;3.55;3.25;;;;;;;20.88;64.08;94497.34;4991230;28;20681;-76
2022/09/12 06:42:09;;;;;;;4.15;3.38;;;;;;;21.02;64.22;94521.50;4991314;28;20259;-78
2022/09/12 06:44:36;;;;;;;3.17;2.88;;;;;;;20.77;64.87;94488.41;4991541;28;20193;-79
2022/09/12 06:47:03;;;;;;;3.92;3.63;;;;;;;20.94;65.14;94519.13;4991889;28;20225;-76
2022/09/12 06:49:30;;;;;;;4.43;3.45;;;;;;;20.92;65.77;94521.94;4991553;28;20716;-77
2022/09/12 06:51:57;;;;;;;4.03;3.42;;;;;;;20.90;66.43;94523.16;4991778;28;20189;-78
2022/09/12 06:54:25;;;;;;;4.97;3.50;;;;;;;20.92;66.47;94523.75;4991509;28;20188;-79
2022/09/12 06:56:52;;;;;;;3.83;3.47;;;;;;;20.88;67.03;94520.75;4991189;28;20200;-78
2022/09/12 06:59:20;;;;;;;3.67;3.47;;;;;;;20.93;65.06;94526.13;4991897;28;20244;-79
2022/09/12 07:01:47;;;;;;;4.82;2.97;;;;;;;20.91;64.38;94530.75;4992348;28;20686;-79
2022/09/12 07:04:15;;;;;;;7.35;4.05;;;;;;;20.87;65.45;94508.75;4991705;28;20186;-79
2022/09/12 07:06:44;;;;;;;3.78;3.47;;;;;;;21.05;65.89;94528.88;4991634;28;20186;-77
2022/09/12 07:09:15;;;;;;;3.92;3.70;;;;;;;21.17;63.49;94529.03;4991887;28;20243;-77
2022/09/12 07:11:42;;;;;;;4.30;3.33;;;;;;;21.23;65.02;94529.00;4991896;28;20205;-76
2022/09/12 07:14:12;;;;;;;4.40;3.33;;;;;;;21.30;65.08;94503.75;4990959;28;20208;-77
2022/09/12 07:16:41;;;;;;;3.70;3.40;;;;;;;21.55;63.67;94544.69;4991020;28;20233;-77
2022/09/12 07:19:09;;;;;;;4.03;3.72;;;;;;;21.24;62.73;94491.59;5002035;28;20208;-77
2022/09/12 07:21:38;;;;;;;3.45;3.15;;;;;;;21.62;62.72;94547.25;5011979;28;20189;-79
2022/09/12 07:24:07;;;;;;;3.63;3.33;;;;;;;21.66;62.71;94541.41;5010769;28;20219;-78
2022/09/12 07:26:34;;;;;;;3.65;3.38;;;;;;;21.80;62.52;94534.31;4999068;28;20580;-78
2022/09/12 07:29:01;;;;;;;5.00;3.50;;;;;;;22.02;62.39;94535.56;4991430;28;20681;-76
2022/09/12 07:31:28;;;;;;;4.43;3.67;;;;;;;22.09;59.45;94539.91;4991321;28;20311;-77
2022/09/12 07:33:57;;;;;;;3.92;3.63;;;;;;;22.04;60.56;94535.34;4990916;28;20224;-76
2022/09/12 07:36:25;;;;;;;4.10;3.80;;;;;;;22.04;59.90;94540.56;4991047;28;20208;-76
2022/09/12 07:38:56;;;;;;;4.00;3.53;;;;;;;22.00;59.33;94529.75;4991375;28;20632;-79
2022/09/12 07:41:27;;;;;;;4.38;4.07;;;;;;;22.04;61.11;94536.16;4990560;28;20189;-77
2022/09/12 07:43:57;;;;;;;4.78;3.90;;;;;;;22.19;59.72;94540.25;4990195;28;20215;-79
2022/09/12 07:46:24;;;;;;;4.10;3.80;;;;;;;22.15;59.95;94533.88;4990618;28;20193;-78
2022/09/12 07:48:51;;;;;;;5.13;4.50;;;;;;;22.28;60.42;94533.78;4991092;28;20192;-78
2022/09/12 07:51:20;;;;;;;4.00;3.70;;;;;;;22.37;58.10;94536.91;4991921;28;20197;-78
2022/09/12 07:53:47;;;;;;;3.75;3.45;;;;;;;22.52;55.59;94532.16;4974157;28;20283;-78
2022/09/12 07:56:15;;;;;;;4.13;3.83;;;;;;;22.59;56.55;94540.72;4990991;28;20212;-76
2022/09/12 07:58:43;;;;;;;4.22;3.90;;;;;;;22.58;56.65;94515.63;4992199;28;20755;-78
2022/09/12 08:01:12;;;;;;;4.00;3.60;;;;;;;22.89;58.06;94532.97;4990306;28;20197;-77
2022/09/12 08:03:40;;;;;;;3.70;3.40;;;;;;;22.93;56.47;94549.03;4990746;28;20197;-78
2022/09/12 08:06:09;;;;;;;3.90;3.25;;;;;;;23.00;56.54;94537.47;4990405;28;20185;-79
2022/09/12 08:08:41;;;;;;;3.65;3.35;;;;;;;23.03;56.75;94534.44;4990686;28;20189;-78
2022/09/12 08:11:09;;;;;;;3.47;3.17;;;;;;;23.16;55.25;94545.75;4991974;28;20217;-79
2022/09/12 08:13:39;;;;;;;3.55;3.25;;;;;;;23.22;55.96;94531.81;4992667;28;20201;-79
2022/09/12 08:16:07;;;;;;;3.55;3.17;;;;;;;23.26;55.34;94538.97;4991113;28;20241;-75
2022/09/12 08:18:35;;;;;;;3.00;2.80;;;;;;;23.24;55.12;94533.19;4990927;28;20684;-78
2022/09/12 08:21:05;;;;;;;3.17;2.92;;;;;;;23.20;55.40;94520.81;4992747;28;20200;-77
2022/09/12 08:23:33;;;;;;;2.90;2.65;;;;;;;23.41;55.57;94528.16;4992525;28;20201;-78
2022/09/12 08:26:03;;;;;;;3.65;2.80;;;;;;;23.24;53.51;94501.88;4990965;28;20638;-77
2022/09/12 08:28:31;;;;;;;2.75;2.55;;;;;;;23.23;54.59;94504.72;4991180;28;20197;-79
2022/09/12 08:31:01;;;;;;;5.47;2.70;;;;;;;23.39;55.43;94532.00;4990445;28;20667;-78
2022/09/12 08:33:31;;;;;;;5.20;2.72;;;;;;;23.45;54.19;94531.94;4991195;28;20197;-78
2022/09/12 08:36:04;;;;;;;3.88;2.92;;;;;;;23.47;55.04;94529.09;4992641;28;20197;-77
2022/09/12 08:38:31;;;;;;;2.83;2.60;;;;;;;23.52;54.25;94516.16;4994609;28;20209;-78
2022/09/12 08:41:07;;;;;;;3.85;2.97;;;;;;;23.45;53.31;94526.72;4994188;28;20201;-78
2022/09/12 08:44:04;;;;;;;2.72;2.53;;;;;;;23.28;54.65;94523.13;4993959;28;20874;-77
2022/09/12 08:46:38;;;;;;;4.05;2.90;;;;;;;23.22;54.83;94530.00;4933653;29;20199;-77
2022/09/12 08:49:09;;;;;;;2.95;2.75;;;;;;;23.30;55.22;94523.69;4933932;29;20195;-77
2022/09/12 08:51:36;;;;;;;3.10;2.90;;;;;;;23.33;53.36;94514.63;4933543;29;20203;-79
2022/09/12 08:54:09;;;;;;;3.15;2.95;;;;;;;23.35;53.72;94509.97;4934211;29;20198;-76
2022/09/12 08:56:39;;;;;;;5.32;3.10;;;;;;;23.21;53.66;94504.13;4933414;29;20206;-77
2022/09/12 08:59:06;;;;;;;5.30;3.00;;;;;;;23.21;54.66;94512.75;4933664;29;20226;-77
2022/09/12 09:01:37;;;;;;;4.00;3.05;;;;;;;23.06;53.68;94480.22;4933788;29;20195;-77
2022/09/12 09:04:31;;;;;;;5.70;3.08;;;;;;;23.25;53.20;94507.91;4933963;29;20290;-78
2022/09/12 09:07:08;;;;;;;3.50;3.20;;;;;;;23.13;53.57;94515.66;4933349;29;20656;-78
2022/09/12 09:09:48;;;;;;;5.28;3.08;;;;;;;22.98;54.98;94479.53;4932904;29;20293;-77
2022/09/12 09:12:24;;;;;;;3.30;3.00;;;;;;;23.18;54.67;94509.78;4933435;29;20616;-77
2022/09/12 09:15:04;;;;;;;3.33;3.13;;;;;;;23.09;54.77;94504.06;4933913;29;20801;-78
2022/09/12 09:17:35;;;;;;;3.60;3.28;;;;;;;23.02;54.12;94467.66;4914563;29;20207;-77
2022/09/12 09:20:10;;;;;;;3.33;3.03;;;;;;;23.21;53.69;94504.94;4914089;29;20216;-77
2022/09/12 09:22:43;;;;;;;3.45;3.20;;;;;;;23.15;53.80;94499.81;4922923;28;20284;-78
2022/09/12 09:25:19;;;;;;;3.50;3.20;;;;;;;23.03;53.99;94500.53;4973487;28;20562;-78
2022/09/12 09:27:53;;;;;;;3.88;3.53;;;;;;;23.04;55.20;94503.94;4973647;28;20265;-79
2022/09/12 09:30:21;;;;;;;7.40;3.47;;;;;;;22.97;54.75;94498.00;4974385;28;20569;-77
2022/09/12 09:32:52;;;;;;;4.10;3.08;;;;;;;22.74;54.65;94460.31;4974039;28;20640;-78
2022/09/12 09:35:26;;;;;;;4.20;3.80;;;;;;;22.87;55.22;94484.66;4974284;28;20194;-77
2022/09/12 09:38:01;;;;;;;3.63;3.00;;;;;;;22.84;54.71;94492.91;4974003;28;20197;-79
2022/09/12 09:40:38;;;;;;;3.60;3.20;;;;;;;22.50;54.16;94432.56;4973592;28;20228;-78
2022/09/12 09:43:17;;;;;;;4.68;3.47;;;;;;;22.92;55.33;94496.03;4973312;28;20661;-77
2022/09/12 09:45:44;;;;;;;3.75;3.45;;;;;;;22.97;55.44;94488.38;4973217;28;20260;-78
2022/09/12 09:48:18;;;;;;;3.75;3.45;;;;;;;23.02;54.90;94492.94;4971982;28;20197;-77
2022/09/12 09:50:47;;;;;;;2.92;2.72;;;;;;;22.81;54.44;94457.66;4973330;28;20189;-77
2022/09/12 09:53:28;;;;;;;3.13;2.92;;;;;;;23.01;54.57;94484.31;4972812;28;20205;-78
2022/09/12 09:55:56;;;;;;;3.58;3.38;;;;;;;22.99;54.44;94482.94;4973643;28;20193;-77
2022/09/12 09:58:33;;;;;;;4.32;3.45;;;;;;;23.00;53.87;94484.53;4973420;28;20197;-78
2022/09/12 10:01:01;;;;;;;3.85;3.25;;;;;;;22.96;53.72;94465.91;4973318;28;20252;-76
2022/09/12 10:03:33;;;;;;;3.40;3.20;;;;;;;23.06;54.07;94475.00;4972331;28;20198;-78
2022/09/12 10:06:05;;;;;;;3.78;3.45;;;;;;;23.01;54.34;94468.69;4973178;28;20209;-77
2022/09/12 10:08:35;;;;;;;3.42;3.22;;;;;;;22.95;52.32;94456.50;4972980;28;20197;-78
2022/09/12 10:11:04;;;;;;;3.17;2.97;;;;;;;22.85;52.71;94464.03;4973992;28;20276;-78
2022/09/12 10:13:36;;;;;;;3.97;3.55;;;;;;;22.95;54.16;94484.41;4972734;28;20198;-80
2022/09/12 10:16:06;;;;;;;3.65;3.38;;;;;;;22.92;53.18;94485.63;4981418;28;20786;-78
2022/09/12 10:18:35;;;;;;;4.47;4.10;;;;;;;22.89;54.18;94483.44;4991525;28;20185;-77
2022/09/12 10:21:12;;;;;;;5.00;3.90;;;;;;;22.96;54.18;94483.38;4991839;28;20608;-77
2022/09/12 10:23:40;;;;;;;4.22;3.80;;;;;;;22.97;54.05;94487.56;4992225;28;20200;-77
2022/09/12 10:26:11;;;;;;;5.28;4.05;;;;;;;22.84;53.83;94464.22;4992121;28;20617;-77
2022/09/12 10:28:42;;;;;;;4.05;3.70;;;;;;;22.97;54.19;94490.16;4991629;28;20193;-79
2022/09/12 10:31:13;;;;;;;4.63;4.10;;;;;;;22.88;54.60;94481.03;4992146;28;20200;-78
2022/09/12 10:33:44;;;;;;;5.03;4.03;;;;;;;22.92;54.61;94480.41;4992175;28;20197;-78
2022/09/12 10:36:11;;;;;;;4.88;4.47;;;;;;;22.93;54.89;94481.22;4991938;28;20247;-77
2022/09/12 10:38:38;;;;;;;5.05;4.25;;;;;;;22.96;54.37;94480.75;4991831;28;20189;-77
2022/09/12 10:41:09;;;;;;;4.63;4.22;;;;;;;23.04;54.70;94483.06;4992101;28;20212;-77
2022/09/12 10:43:38;;;;;;;7.50;3.60;;;;;;;22.98;52.06;94489.97;4991448;28;20193;-77
2022/09/12 10:46:29;;;;;;;3.53;3.33;;;;;;;22.95;52.93;94489.59;4991334;28;20216;-77
2022/09/12 10:49:26;;;;;;;3.63;3.35;;;;;;;22.98;52.62;94491.78;4991372;28;20213;-79
2022/09/12 10:51:55;;;;;;;4.72;3.97;;;;;;;22.60;52.19;94416.41;4990911;28;20200;-80
2022/09/12 10:54:24;;;;;;;4.82;4.50;;;;;;;22.92;53.07;94480.41;4991410;28;20193;-77
2022/09/12 10:57:27;;;;;;;4.63;4.22;;;;;;;22.98;53.80;94486.56;4991253;28;20197;-78
2022/09/12 11:00:07;;;;;;;4.68;4.28;;;;;;;22.99;53.69;94491.56;4990525;28;20228;-79
2022/09/12 11:02:58;;;;;;;4.95;4.55;;;;;;;22.91;53.00;94478.81;4991609;28;21027;-78
2022/09/12 11:05:44;;;;;;;7.05;3.95;;;;;;;23.00;53.19;94487.94;4991302;28;20231;-78
2022/09/12 11:08:35;;;;;;;8.38;4.32;;;;;;;22.96;51.73;94492.00;4990594;28;20189;-80
2022/09/12 11:11:08;;;;;;;5.70;4.43;;;;;;;22.91;52.87;94486.63;4988203;28;20204;-79
2022/09/12 11:13:52;;;;;;;4.80;4.38;;;;;;;22.35;53.45;94404.22;4990720;28;20220;-76
2022/09/12 11:16:29;;;;;;;5.50;4.82;;;;;;;22.85;52.67;94487.50;4991546;28;20236;-79
2022/09/12 11:19:25;;;;;;;5.15;4.75;;;;;;;22.82;52.89;94482.72;4991478;28;20220;-77
2022/09/12 11:22:05;;;;;;;7.32;4.65;;;;;;;22.85;52.67;94479.66;4990844;28;20221;-79
2022/09/12 11:24:56;;;;;;;5.05;4.65;;;;;;;22.78;52.82;94466.69;4990735;28;20210;-79
2022/09/12 11:27:49;;;;;;;6.22;4.82;;;;;;;22.86;52.22;94478.66;4984712;28;20250;-80
2022/09/12 11:30:18;;;;;;;6.13;4.53;;;;;;;22.84;52.51;94477.25;4990321;28;20561;-79
2022/09/12 11:33:01;;;;;;;4.45;4.15;;;;;;;22.74;52.29;94465.53;4991012;28;20200;-78
2022/09/12 11:35:30;;;;;;;5.15;4.75;;;;;;;22.75;53.53;94461.13;4990407;28;20196;-78
2022/09/12 11:38:23;;;;;;;4.75;4.35;;;;;;;22.81;53.03;94481.13;4990349;28;20550;-76
2022/09/12 11:40:54;;;;;;;5.82;5.15;;;;;;;22.58;53.28;94445.25;4990626;28;20228;-79
2022/09/12 11:43:34;;;;;;;5.38;4.97;;;;;;;22.61;53.52;94483.16;4990576;28;20189;-77
2022/09/12 11:46:09;;;;;;;4.90;4.50;;;;;;;22.47;54.44;94480.69;4990298;28;20189;-78
2022/09/12 11:48:44;;;;;;;5.72;4.65;;;;;;;22.48;54.92;94468.44;4990101;28;20195;-79
2022/09/12 11:51:19;;;;;;;5.88;5.07;;;;;;;22.45;55.36;94480.13;4990164;28;20661;-79
2022/09/12 11:54:05;;;;;;;5.57;5.10;;;;;;;22.50;55.34;94472.44;4990134;28;20219;-78
2022/09/12 11:56:32;;;;;;;5.28;4.80;;;;;;;22.48;55.51;94477.06;4990549;28;20279;-79